sensor_id;sensor_type;location;lat;lon;timestamp;pressure;altitude;pressure_sealevel;temperature;humidity
60373;BME280;46216;52.220;5.134;2022-09-30T00:01:45;101035.56;;;8.59;100.00
60373;BME280;46216;52.220;5.134;2022-09-30T00:04:18;101040.13;;;8.57;100.00
60373;BME280;46216;52.220;5.134;2022-09-30T00:06:43;101035.66;;;8.58;100.00
60373;BME280;46216;52.220;5.134;2022-09-30T00:09:09;101026.66;;;8.60;100.00
60373;BME280;46216;52.220;5.134;2022-09-30T00:11:37;101024.84;;;8.61;100.00
60373;BME280;46216;52.220;5.134;2022-09-30T00:14:04;101023.91;;;8.62;100.00
60373;BME280;46216;52.220;5.134;2022-09-30T00:16:32;101023.06;;;8.61;100.00
60373;BME280;46216;52.220;5.134;2022-09-30T00:18:58;101027.50;;;8.61;100.00
60373;BME280;46216;52.220;5.134;2022-09-30T00:21:25;101016.88;;;8.61;100.00
60373;BME280;46216;52.220;5.134;2022-09-30T00:23:51;101021.16;;;8.63;100.00
60373;BME280;46216;52.220;5.134;2022-09-30T00:26:19;101012.34;;;8.63;100.00
60373;BME280;46216;52.220;5.134;2022-09-30T00:28:51;101015.09;;;8.61;100.00
60373;BME280;46216;52.220;5.134;2022-09-30T00:31:18;101019.25;;;8.65;100.00
60373;BME280;46216;52.220;5.134;2022-09-30T00:33:45;101026.47;;;8.63;100.00
60373;BME280;46216;52.220;5.134;2022-09-30T00:36:44;101039.56;;;8.66;100.00
60373;BME280;46216;52.220;5.134;2022-09-30T00:39:13;101042.97;;;8.68;100.00
60373;BME280;46216;52.220;5.134;2022-09-30T00:41:39;101039.28;;;8.71;100.00
60373;BME280;46216;52.220;5.134;2022-09-30T00:50:42;101033.97;;;8.71;100.00
60373;BME280;46216;52.220;5.134;2022-09-30T00:53:16;101037.19;;;8.76;100.00
60373;BME280;46216;52.220;5.134;2022-09-30T00:56:00;101046.09;;;8.75;100.00
60373;BME280;46216;52.220;5.134;2022-09-30T00:58:32;101041.47;;;8.79;100.00
60373;BME280;46216;52.220;5.134;2022-09-30T01:01:00;101042.13;;;8.82;100.00
60373;BME280;46216;52.220;5.134;2022-09-30T01:03:29;101030.56;;;8.83;100.00
60373;BME280;46216;52.220;5.134;2022-09-30T01:05:55;101023.34;;;8.85;100.00
60373;BME280;46216;52.220;5.134;2022-09-30T01:08:21;101027.69;;;8.86;100.00
60373;BME280;46216;52.220;5.134;2022-09-30T01:10:47;101023.16;;;8.88;100.00
60373;BME280;46216;52.220;5.134;2022-09-30T01:13:14;101021.34;;;8.89;100.00
60373;BME280;46216;52.220;5.134;2022-09-30T01:16:05;101030.16;;;8.89;100.00
60373;BME280;46216;52.220;5.134;2022-09-30T01:24:15;101033.41;;;8.94;100.00
60373;BME280;46216;52.220;5.134;2022-09-30T01:32:17;101035.66;;;9.00;100.00
60373;BME280;46216;52.220;5.134;2022-09-30T01:35:42;101039.06;;;9.03;100.00
60373;BME280;46216;52.220;5.134;2022-09-30T01:38:02;101038.16;;;9.04;100.00
60373;BME280;46216;52.220;5.134;2022-09-30T01:48:24;101041.94;;;9.14;100.00
60373;BME280;46216;52.220;5.134;2022-09-30T01:51:04;101042.78;;;9.14;100.00
60373;BME280;46216;52.220;5.134;2022-09-30T01:53:59;101047.25;;;9.14;100.00
60373;BME280;46216;52.220;5.134;2022-09-30T01:56:51;101043.63;;;9.15;100.00
60373;BME280;46216;52.220;5.134;2022-09-30T01:59:25;101035.53;;;9.16;100.00
60373;BME280;46216;52.220;5.134;2022-09-30T02:02:20;101040.66;;;9.19;100.00
60373;BME280;46216;52.220;5.134;2022-09-30T02:04:49;101037.91;;;9.21;100.00
60373;BME280;46216;52.220;5.134;2022-09-30T02:07:21;101043.13;;;9.22;100.00
60373;BME280;46216;52.220;5.134;2022-09-30T02:09:58;101046.63;;;9.23;100.00
60373;BME280;46216;52.220;5.134;2022-09-30T02:12:27;101045.59;;;9.26;100.00
60373;BME280;46216;52.220;5.134;2022-09-30T02:15:06;101035.91;;;9.24;100.00
60373;BME280;46216;52.220;5.134;2022-09-30T02:17:45;101035.81;;;9.26;100.00
60373;BME280;46216;52.220;5.134;2022-09-30T02:20:20;101035.63;;;9.29;100.00
60373;BME280;46216;52.220;5.134;2022-09-30T02:22:49;101035.53;;;9.31;100.00
60373;BME280;46216;52.220;5.134;2022-09-30T02:25:29;101038.38;;;9.28;100.00
60373;BME280;46216;52.220;5.134;2022-09-30T02:27:59;101034.75;;;9.29;100.00
60373;BME280;46216;52.220;5.134;2022-09-30T02:30:26;101045.41;;;9.29;100.00
60373;BME280;46216;52.220;5.134;2022-09-30T02:32:55;101045.47;;;9.27;100.00
60373;BME280;46216;52.220;5.134;2022-09-30T02:35:28;101039.44;;;9.25;100.00
60373;BME280;46216;52.220;5.134;2022-09-30T02:37:59;101036.97;;;9.22;100.00
60373;BME280;46216;52.220;5.134;2022-09-30T02:43:05;101045.72;;;9.24;100.00
60373;BME280;46216;52.220;5.134;2022-09-30T02:45:41;101040.59;;;9.21;100.00
60373;BME280;46216;52.220;5.134;2022-09-30T02:48:28;101044.34;;;9.17;100.00
60373;BME280;46216;52.220;5.134;2022-09-30T02:51:02;101046.28;;;9.15;100.00
60373;BME280;46216;52.220;5.134;2022-09-30T02:53:35;101050.84;;;9.13;100.00
60373;BME280;46216;52.220;5.134;2022-09-30T02:56:28;101058.16;;;9.09;100.00
60373;BME280;46216;52.220;5.134;2022-09-30T02:58:58;101055.31;;;9.12;100.00
60373;BME280;46216;52.220;5.134;2022-09-30T03:01:24;101054.44;;;9.12;100.00
60373;BME280;46216;52.220;5.134;2022-09-30T03:03:52;101052.94;;;9.08;100.00
60373;BME280;46216;52.220;5.134;2022-09-30T03:06:20;101052.09;;;9.07;100.00
60373;BME280;46216;52.220;5.134;2022-09-30T03:08:46;101046.97;;;9.04;100.00
60373;BME280;46216;52.220;5.134;2022-09-30T03:11:19;101056.16;;;8.98;100.00
60373;BME280;46216;52.220;5.134;2022-09-30T03:13:55;101048.38;;;8.95;100.00
60373;BME280;46216;52.220;5.134;2022-09-30T03:16:44;101056.66;;;8.91;100.00
60373;BME280;46216;52.220;5.134;2022-09-30T03:28:20;101065.84;;;8.85;100.00
60373;BME280;46216;52.220;5.134;2022-09-30T03:31:04;101074.97;;;8.81;100.00
60373;BME280;46216;52.220;5.134;2022-09-30T03:33:38;101080.09;;;8.84;100.00
60373;BME280;46216;52.220;5.134;2022-09-30T03:36:34;101077.03;;;8.76;100.00
60373;BME280;46216;52.220;5.134;2022-09-30T03:42:31;101070.31;;;8.70;100.00
60373;BME280;46216;52.220;5.134;2022-09-30T03:47:49;101083.19;;;8.62;100.00
60373;BME280;46216;52.220;5.134;2022-09-30T03:50:19;101101.13;;;8.59;100.00
60373;BME280;46216;52.220;5.134;2022-09-30T03:52:46;101094.22;;;8.56;100.00
60373;BME280;46216;52.220;5.134;2022-09-30T03:55:12;101100.38;;;8.57;100.00
60373;BME280;46216;52.220;5.134;2022-09-30T03:57:37;101091.56;;;8.56;100.00
60373;BME280;46216;52.220;5.134;2022-09-30T04:00:04;101093.56;;;8.52;100.00
60373;BME280;46216;52.220;5.134;2022-09-30T04:02:30;101084.88;;;8.49;100.00
60373;BME280;46216;52.220;5.134;2022-09-30T04:04:56;101095.63;;;8.47;100.00
60373;BME280;46216;52.220;5.134;2022-09-30T04:07:21;101100.25;;;8.44;100.00
60373;BME280;46216;52.220;5.134;2022-09-30T04:09:47;101100.44;;;8.41;100.00
60373;BME280;46216;52.220;5.134;2022-09-30T04:12:12;101100.53;;;8.39;100.00
60373;BME280;46216;52.220;5.134;2022-09-30T04:14:38;101101.47;;;8.38;100.00
60373;BME280;46216;52.220;5.134;2022-09-30T04:17:04;101095.56;;;8.33;100.00
60373;BME280;46216;52.220;5.134;2022-09-30T04:19:30;101105.22;;;8.34;100.00
60373;BME280;46216;52.220;5.134;2022-09-30T04:21:56;101107.09;;;8.32;100.00
60373;BME280;46216;52.220;5.134;2022-09-30T04:24:22;101111.84;;;8.27;100.00
60373;BME280;46216;52.220;5.134;2022-09-30T04:26:48;101122.47;;;8.27;100.00
60373;BME280;46216;52.220;5.134;2022-09-30T04:29:14;101121.69;;;8.25;100.00
60373;BME280;46216;52.220;5.134;2022-09-30T04:31:39;101113.91;;;8.22;100.00
60373;BME280;46216;52.220;5.134;2022-09-30T04:34:05;101113.03;;;8.21;100.00
60373;BME280;46216;52.220;5.134;2022-09-30T04:36:30;101115.03;;;8.18;100.00
60373;BME280;46216;52.220;5.134;2022-09-30T04:38:55;101112.66;;;8.13;100.00
60373;BME280;46216;52.220;5.134;2022-09-30T04:41:22;101111.03;;;8.11;100.00
60373;BME280;46216;52.220;5.134;2022-09-30T04:43:47;101118.13;;;8.10;100.00
60373;BME280;46216;52.220;5.134;2022-09-30T04:46:18;101110.28;;;8.09;100.00
60373;BME280;46216;52.220;5.134;2022-09-30T04:48:44;101118.22;;;8.09;100.00
60373;BME280;46216;52.220;5.134;2022-09-30T04:51:14;101121.97;;;8.04;100.00
60373;BME280;46216;52.220;5.134;2022-09-30T04:53:40;101124.56;;;8.06;100.00
60373;BME280;46216;52.220;5.134;2022-09-30T04:56:07;101121.91;;;8.06;100.00
60373;BME280;46216;52.220;5.134;2022-09-30T04:58:32;101132.53;;;8.06;100.00
60373;BME280;46216;52.220;5.134;2022-09-30T05:03:31;101131.00;;;8.02;100.00
60373;BME280;46216;52.220;5.134;2022-09-30T05:05:57;101135.44;;;8.01;100.00
60373;BME280;46216;52.220;5.134;2022-09-30T05:08:22;101140.72;;;8.01;100.00
60373;BME280;46216;52.220;5.134;2022-09-30T05:10:58;101133.91;;;7.97;100.00
60373;BME280;46216;52.220;5.134;2022-09-30T05:13:25;101132.19;;;7.96;100.00
60373;BME280;46216;52.220;5.134;2022-09-30T05:15:54;101143.75;;;7.95;100.00
60373;BME280;46216;52.220;5.134;2022-09-30T05:18:20;101137.69;;;7.93;100.00
60373;BME280;46216;52.220;5.134;2022-09-30T05:20:49;101142.97;;;7.93;100.00
60373;BME280;46216;52.220;5.134;2022-09-30T05:23:15;101148.28;;;7.93;100.00
60373;BME280;46216;52.220;5.134;2022-09-30T05:25:41;101147.44;;;7.93;100.00
60373;BME280;46216;52.220;5.134;2022-09-30T05:28:06;101146.41;;;7.95;100.00
60373;BME280;46216;52.220;5.134;2022-09-30T05:30:32;101156.88;;;7.98;100.00
60373;BME280;46216;52.220;5.134;2022-09-30T05:32:58;101157.72;;;7.99;100.00
60373;BME280;46216;52.220;5.134;2022-09-30T05:35:23;101153.25;;;7.99;100.00
60373;BME280;46216;52.220;5.134;2022-09-30T05:37:48;101153.25;;;7.99;100.00
60373;BME280;46216;52.220;5.134;2022-09-30T05:40:14;101155.81;;;8.01;100.00
60373;BME280;46216;52.220;5.134;2022-09-30T05:42:39;101147.94;;;7.99;100.00
60373;BME280;46216;52.220;5.134;2022-09-30T05:45:05;101149.66;;;8.00;100.00
60373;BME280;46216;52.220;5.134;2022-09-30T05:47:33;101147.09;;;7.99;100.00
60373;BME280;46216;52.220;5.134;2022-09-30T05:49:58;101148.81;;;8.00;100.00
60373;BME280;46216;52.220;5.134;2022-09-30T05:52:24;101150.59;;;7.99;100.00
60373;BME280;46216;52.220;5.134;2022-09-30T05:54:50;101148.91;;;7.98;100.00
60373;BME280;46216;52.220;5.134;2022-09-30T05:57:15;101160.44;;;7.97;100.00
60373;BME280;46216;52.220;5.134;2022-09-30T05:59:42;101166.69;;;7.96;100.00
60373;BME280;46216;52.220;5.134;2022-09-30T06:02:08;101164.03;;;7.96;100.00
60373;BME280;46216;52.220;5.134;2022-09-30T06:04:33;101160.44;;;7.97;100.00
60373;BME280;46216;52.220;5.134;2022-09-30T06:06:59;101165.75;;;7.97;100.00
60373;BME280;46216;52.220;5.134;2022-09-30T06:09:24;101167.47;;;7.98;100.00
60373;BME280;46216;52.220;5.134;2022-09-30T06:11:50;101155.91;;;7.99;100.00
60373;BME280;46216;52.220;5.134;2022-09-30T06:14:15;101156.75;;;8.00;100.00
60373;BME280;46216;52.220;5.134;2022-09-30T06:16:42;101158.22;;;8.05;100.00
60373;BME280;46216;52.220;5.134;2022-09-30T06:19:08;101164.38;;;8.06;100.00
60373;BME280;46216;52.220;5.134;2022-09-30T06:21:33;101154.34;;;8.11;100.00
60373;BME280;46216;52.220;5.134;2022-09-30T06:23:59;101162.13;;;8.14;100.00
60373;BME280;46216;52.220;5.134;2022-09-30T06:26:24;101168.97;;;8.18;100.00
60373;BME280;46216;52.220;5.134;2022-09-30T06:28:50;101164.34;;;8.22;100.00
60373;BME280;46216;52.220;5.134;2022-09-30T06:31:15;101165.06;;;8.25;100.00
60373;BME280;46216;52.220;5.134;2022-09-30T06:33:41;101172.56;;;8.33;100.00
60373;BME280;46216;52.220;5.134;2022-09-30T06:36:07;101181.81;;;8.42;100.00
60373;BME280;46216;52.220;5.134;2022-09-30T06:38:33;101182.31;;;8.48;100.00
60373;BME280;46216;52.220;5.134;2022-09-30T06:41:01;101184.63;;;8.55;100.00
60373;BME280;46216;52.220;5.134;2022-09-30T06:43:27;101187.75;;;8.61;100.00
60373;BME280;46216;52.220;5.134;2022-09-30T06:45:53;101189.03;;;8.70;100.00
60373;BME280;46216;52.220;5.134;2022-09-30T06:48:18;101185.06;;;8.77;100.00
60373;BME280;46216;52.220;5.134;2022-09-30T06:50:44;101190.75;;;8.85;100.00
60373;BME280;46216;52.220;5.134;2022-09-30T06:53:10;101197.25;;;8.95;100.00
60373;BME280;46216;52.220;5.134;2022-09-30T06:55:37;101196.69;;;9.05;100.00
60373;BME280;46216;52.220;5.134;2022-09-30T06:58:05;101192.53;;;9.15;100.00
60373;BME280;46216;52.220;5.134;2022-09-30T07:00:32;101195.56;;;9.23;100.00
60373;BME280;46216;52.220;5.134;2022-09-30T07:02:57;101195.97;;;9.31;100.00
60373;BME280;46216;52.220;5.134;2022-09-30T07:05:23;101201.66;;;9.39;100.00
60373;BME280;46216;52.220;5.134;2022-09-30T07:07:52;101204.47;;;9.51;100.00
60373;BME280;46216;52.220;5.134;2022-09-30T07:10:18;101199.56;;;9.59;100.00
60373;BME280;46216;52.220;5.134;2022-09-30T07:12:48;101200.09;;;9.64;100.00
60373;BME280;46216;52.220;5.134;2022-09-30T07:15:13;101202.31;;;9.71;100.00
60373;BME280;46216;52.220;5.134;2022-09-30T07:17:38;101202.56;;;9.81;100.00
60373;BME280;46216;52.220;5.134;2022-09-30T07:20:05;101200.28;;;9.89;100.00
60373;BME280;46216;52.220;5.134;2022-09-30T07:22:32;101194.25;;;10.00;100.00
60373;BME280;46216;52.220;5.134;2022-09-30T07:25:01;101197.25;;;10.08;100.00
60373;BME280;46216;52.220;5.134;2022-09-30T07:27:31;101189.00;;;10.13;100.00
60373;BME280;46216;52.220;5.134;2022-09-30T07:29:57;101194.66;;;10.21;100.00
60373;BME280;46216;52.220;5.134;2022-09-30T07:32:23;101200.63;;;10.25;100.00
60373;BME280;46216;52.220;5.134;2022-09-30T07:34:48;101184.94;;;10.34;100.00
60373;BME280;46216;52.220;5.134;2022-09-30T07:37:16;101199.88;;;10.37;100.00
60373;BME280;46216;52.220;5.134;2022-09-30T07:39:43;101198.19;;;10.49;100.00
60373;BME280;46216;52.220;5.134;2022-09-30T07:42:10;101189.59;;;10.58;100.00
60373;BME280;46216;52.220;5.134;2022-09-30T07:44:38;101192.50;;;10.68;100.00
60373;BME280;46216;52.220;5.134;2022-09-30T07:47:12;101196.97;;;10.80;100.00
60373;BME280;46216;52.220;5.134;2022-09-30T07:49:40;101184.63;;;10.92;100.00
60373;BME280;46216;52.220;5.134;2022-09-30T07:52:06;101183.56;;;11.07;100.00
60373;BME280;46216;52.220;5.134;2022-09-30T07:54:33;101183.06;;;11.15;100.00
60373;BME280;46216;52.220;5.134;2022-09-30T07:57:00;101177.69;;;11.27;100.00
60373;BME280;46216;52.220;5.134;2022-09-30T07:59:31;101183.16;;;11.39;100.00
60373;BME280;46216;52.220;5.134;2022-09-30T08:01:56;101172.69;;;11.48;100.00
60373;BME280;46216;52.220;5.134;2022-09-30T08:04:23;101172.13;;;11.56;100.00
60373;BME280;46216;52.220;5.134;2022-09-30T08:06:52;101176.69;;;11.67;100.00
60373;BME280;46216;52.220;5.134;2022-09-30T08:09:20;101168.13;;;11.74;100.00
60373;BME280;46216;52.220;5.134;2022-09-30T08:11:46;101169.19;;;11.84;100.00
60373;BME280;46216;52.220;5.134;2022-09-30T08:14:18;101168.88;;;11.89;100.00
60373;BME280;46216;52.220;5.134;2022-09-30T08:16:43;101178.56;;;12.03;100.00
60373;BME280;46216;52.220;5.134;2022-09-30T08:19:13;101170.06;;;12.09;100.00
60373;BME280;46216;52.220;5.134;2022-09-30T08:21:40;101173.75;;;12.19;100.00
60373;BME280;46216;52.220;5.134;2022-09-30T08:24:05;101173.31;;;12.25;100.00
60373;BME280;46216;52.220;5.134;2022-09-30T08:26:30;101189.41;;;12.37;100.00
60373;BME280;46216;52.220;5.134;2022-09-30T08:28:56;101187.13;;;12.43;100.00
60373;BME280;46216;52.220;5.134;2022-09-30T08:31:22;101184.59;;;12.53;100.00
60373;BME280;46216;52.220;5.134;2022-09-30T08:33:48;101176.88;;;12.61;100.00
60373;BME280;46216;52.220;5.134;2022-09-30T08:36:21;101175.44;;;12.68;100.00
60373;BME280;46216;52.220;5.134;2022-09-30T08:38:47;101171.19;;;12.77;100.00
60373;BME280;46216;52.220;5.134;2022-09-30T08:44:00;101175.72;;;12.88;100.00
60373;BME280;46216;52.220;5.134;2022-09-30T08:46:43;101180.34;;;12.97;100.00
60373;BME280;46216;52.220;5.134;2022-09-30T08:49:28;101178.81;;;13.06;100.00
60373;BME280;46216;52.220;5.134;2022-09-30T08:51:58;101180.63;;;13.16;100.00
60373;BME280;46216;52.220;5.134;2022-09-30T08:54:29;101187.22;;;13.23;100.00
60373;BME280;46216;52.220;5.134;2022-09-30T08:56:56;101191.03;;;13.32;100.00
60373;BME280;46216;52.220;5.134;2022-09-30T09:02:37;101180.94;;;13.47;100.00
60373;BME280;46216;52.220;5.134;2022-09-30T09:05:10;101179.69;;;13.51;100.00
60373;BME280;46216;52.220;5.134;2022-09-30T09:07:46;101184.56;;;13.57;100.00
60373;BME280;46216;52.220;5.134;2022-09-30T09:18:50;101190.38;;;13.85;100.00
60373;BME280;46216;52.220;5.134;2022-09-30T09:24:27;101173.25;;;14.19;100.00
60373;BME280;46216;52.220;5.134;2022-09-30T09:26:54;101163.94;;;14.35;100.00
60373;BME280;46216;52.220;5.134;2022-09-30T09:29:31;101169.13;;;14.48;100.00
60373;BME280;46216;52.220;5.134;2022-09-30T09:32:01;101160.47;;;14.55;100.00
60373;BME280;46216;52.220;5.134;2022-09-30T09:34:28;101158.38;;;14.59;100.00
60373;BME280;46216;52.220;5.134;2022-09-30T09:39:57;101150.81;;;14.64;100.00
60373;BME280;46216;52.220;5.134;2022-09-30T09:47:42;101157.28;;;14.82;100.00
60373;BME280;46216;52.220;5.134;2022-09-30T09:50:33;101157.88;;;14.86;100.00
60373;BME280;46216;52.220;5.134;2022-09-30T09:53:43;101152.94;;;14.91;100.00
60373;BME280;46216;52.220;5.134;2022-09-30T09:56:18;101151.44;;;14.98;100.00
60373;BME280;46216;52.220;5.134;2022-09-30T09:59:08;101147.25;;;15.05;100.00
60373;BME280;46216;52.220;5.134;2022-09-30T10:01:39;101149.00;;;15.16;100.00
60373;BME280;46216;52.220;5.134;2022-09-30T10:04:11;101141.97;;;15.25;100.00
60373;BME280;46216;52.220;5.134;2022-09-30T10:06:48;101134.78;;;15.25;100.00
60373;BME280;46216;52.220;5.134;2022-09-30T10:09:34;101135.78;;;15.34;100.00
60373;BME280;46216;52.220;5.134;2022-09-30T10:14:33;101127.34;;;15.48;100.00
60373;BME280;46216;52.220;5.134;2022-09-30T10:17:00;101129.38;;;15.56;100.00
60373;BME280;46216;52.220;5.134;2022-09-30T10:19:28;101128.22;;;15.58;100.00
60373;BME280;46216;52.220;5.134;2022-09-30T10:24:33;101121.97;;;15.69;100.00
60373;BME280;46216;52.220;5.134;2022-09-30T10:26:59;101120.41;;;15.76;100.00
60373;BME280;46216;52.220;5.134;2022-09-30T10:29:32;101118.03;;;15.83;100.00
60373;BME280;46216;52.220;5.134;2022-09-30T10:31:59;101126.22;;;15.91;100.00
60373;BME280;46216;52.220;5.134;2022-09-30T10:34:34;101125.22;;;15.92;100.00
60373;BME280;46216;52.220;5.134;2022-09-30T10:37:05;101119.88;;;16.02;100.00
60373;BME280;46216;52.220;5.134;2022-09-30T10:39:34;101113.66;;;16.11;100.00
60373;BME280;46216;52.220;5.134;2022-09-30T10:47:15;101113.50;;;16.42;100.00
60373;BME280;46216;52.220;5.134;2022-09-30T10:49:50;101106.72;;;16.47;100.00
60373;BME280;46216;52.220;5.134;2022-09-30T10:52:20;101103.44;;;16.53;100.00
60373;BME280;46216;52.220;5.134;2022-09-30T10:54:57;101101.47;;;16.55;100.00
60373;BME280;46216;52.220;5.134;2022-09-30T10:57:27;101103.72;;;16.60;100.00
60373;BME280;46216;52.220;5.134;2022-09-30T11:00:13;101096.75;;;16.67;100.00
60373;BME280;46216;52.220;5.134;2022-09-30T11:02:44;101099.88;;;16.72;100.00
60373;BME280;46216;52.220;5.134;2022-09-30T11:08:01;101080.03;;;16.64;100.00
60373;BME280;46216;52.220;5.134;2022-09-30T11:10:37;101084.59;;;16.63;100.00
60373;BME280;46216;52.220;5.134;2022-09-30T11:13:18;101084.75;;;16.62;100.00
60373;BME280;46216;52.220;5.134;2022-09-30T11:16:14;101081.63;;;16.76;100.00
60373;BME280;46216;52.220;5.134;2022-09-30T11:18:56;101079.16;;;16.92;100.00
60373;BME280;46216;52.220;5.134;2022-09-30T11:21:36;101079.41;;;17.09;100.00
60373;BME280;46216;52.220;5.134;2022-09-30T11:24:24;101073.81;;;17.20;100.00
60373;BME280;46216;52.220;5.134;2022-09-30T11:27:17;101075.78;;;17.18;100.00
60373;BME280;46216;52.220;5.134;2022-09-30T11:35:13;101072.50;;;16.96;100.00
60373;BME280;46216;52.220;5.134;2022-09-30T11:40:41;101071.69;;;16.76;100.00
60373;BME280;46216;52.220;5.134;2022-09-30T11:46:06;101069.91;;;16.95;100.00
60373;BME280;46216;52.220;5.134;2022-09-30T11:48:42;101057.72;;;17.00;100.00
60373;BME280;46216;52.220;5.134;2022-09-30T11:56:56;101035.31;;;17.10;100.00
60373;BME280;46216;52.220;5.134;2022-09-30T11:59:32;101032.75;;;17.08;100.00
60373;BME280;46216;52.220;5.134;2022-09-30T12:02:02;101027.53;;;17.07;100.00
60373;BME280;46216;52.220;5.134;2022-09-30T12:04:38;101017.13;;;17.12;100.00
60373;BME280;46216;52.220;5.134;2022-09-30T12:07:10;101027.25;;;17.27;100.00
60373;BME280;46216;52.220;5.134;2022-09-30T12:09:45;101020.13;;;17.36;100.00
60373;BME280;46216;52.220;5.134;2022-09-30T12:12:14;101010.53;;;17.52;100.00
60373;BME280;46216;52.220;5.134;2022-09-30T12:14:57;101008.31;;;17.65;100.00
60373;BME280;46216;52.220;5.134;2022-09-30T12:20:17;101006.00;;;17.70;100.00
60373;BME280;46216;52.220;5.134;2022-09-30T12:22:46;101008.69;;;17.70;100.00
60373;BME280;46216;52.220;5.134;2022-09-30T12:25:22;101003.00;;;17.73;100.00
60373;BME280;46216;52.220;5.134;2022-09-30T12:28:04;101010.34;;;17.81;100.00
60373;BME280;46216;52.220;5.134;2022-09-30T12:31:02;101004.94;;;17.81;100.00
60373;BME280;46216;52.220;5.134;2022-09-30T12:36:22;101003.31;;;17.70;100.00
60373;BME280;46216;52.220;5.134;2022-09-30T12:39:23;101003.09;;;17.81;100.00
60373;BME280;46216;52.220;5.134;2022-09-30T12:42:15;100994.00;;;17.82;100.00
60373;BME280;46216;52.220;5.134;2022-09-30T12:47:50;100989.75;;;17.98;100.00
60373;BME280;46216;52.220;5.134;2022-09-30T12:50:21;100993.84;;;18.02;100.00
60373;BME280;46216;52.220;5.134;2022-09-30T12:52:49;100978.91;;;17.89;100.00
60373;BME280;46216;52.220;5.134;2022-09-30T12:57:50;100986.44;;;17.68;100.00
60373;BME280;46216;52.220;5.134;2022-09-30T13:00:25;100984.13;;;17.73;100.00
60373;BME280;46216;52.220;5.134;2022-09-30T13:03:04;100975.84;;;17.84;100.00
60373;BME280;46216;52.220;5.134;2022-09-30T13:31:22;100940.69;;;17.76;100.00
60373;BME280;46216;52.220;5.134;2022-09-30T13:34:13;100945.78;;;17.79;100.00
60373;BME280;46216;52.220;5.134;2022-09-30T13:42:09;100934.75;;;17.55;100.00
60373;BME280;46216;52.220;5.134;2022-09-30T13:44:43;100939.44;;;17.53;100.00
60373;BME280;46216;52.220;5.134;2022-09-30T13:47:49;100936.22;;;17.49;100.00
60373;BME280;46216;52.220;5.134;2022-09-30T13:53:13;100941.22;;;17.62;100.00
60373;BME280;46216;52.220;5.134;2022-09-30T13:55:42;100935.38;;;17.66;100.00
60373;BME280;46216;52.220;5.134;2022-09-30T14:00:50;100940.75;;;17.48;100.00
60373;BME280;46216;52.220;5.134;2022-09-30T14:06:20;100935.31;;;17.40;100.00
60373;BME280;46216;52.220;5.134;2022-09-30T14:09:18;100928.53;;;17.36;100.00
60373;BME280;46216;52.220;5.134;2022-09-30T14:12:08;100933.28;;;17.42;100.00
60373;BME280;46216;52.220;5.134;2022-09-30T14:17:44;100926.06;;;17.61;100.00
60373;BME280;46216;52.220;5.134;2022-09-30T14:20:41;100927.59;;;17.63;100.00
60373;BME280;46216;52.220;5.134;2022-09-30T14:23:16;100920.06;;;17.67;100.00
60373;BME280;46216;52.220;5.134;2022-09-30T14:28:41;100916.13;;;17.61;100.00
60373;BME280;46216;52.220;5.134;2022-09-30T14:31:13;100913.59;;;17.60;100.00
60373;BME280;46216;52.220;5.134;2022-09-30T14:33:41;100905.03;;;17.64;100.00
60373;BME280;46216;52.220;5.134;2022-09-30T14:36:14;100903.19;;;17.65;100.00
60373;BME280;46216;52.220;5.134;2022-09-30T14:38:44;100908.66;;;17.73;100.00
60373;BME280;46216;52.220;5.134;2022-09-30T14:41:19;100903.84;;;17.77;100.00
60373;BME280;46216;52.220;5.134;2022-09-30T14:43:48;100890.56;;;17.83;100.00
60373;BME280;46216;52.220;5.134;2022-09-30T14:46:25;100892.78;;;17.88;100.00
60373;BME280;46216;52.220;5.134;2022-09-30T14:48:56;100896.31;;;17.88;100.00
60373;BME280;46216;52.220;5.134;2022-09-30T14:51:24;100895.84;;;17.93;100.00
60373;BME280;46216;52.220;5.134;2022-09-30T14:53:54;100885.06;;;17.93;100.00
60373;BME280;46216;52.220;5.134;2022-09-30T14:56:27;100881.50;;;17.92;100.00
60373;BME280;46216;52.220;5.134;2022-09-30T14:58:54;100879.84;;;17.91;100.00
60373;BME280;46216;52.220;5.134;2022-09-30T15:01:22;100881.91;;;17.98;100.00
60373;BME280;46216;52.220;5.134;2022-09-30T15:03:59;100881.19;;;17.95;100.00
60373;BME280;46216;52.220;5.134;2022-09-30T15:06:32;100880.19;;;17.96;100.00
60373;BME280;46216;52.220;5.134;2022-09-30T15:09:04;100892.81;;;17.96;100.00
60373;BME280;46216;52.220;5.134;2022-09-30T15:11:30;100888.28;;;17.96;100.00
60373;BME280;46216;52.220;5.134;2022-09-30T15:14:09;100881.19;;;17.95;100.00
60373;BME280;46216;52.220;5.134;2022-09-30T15:19:17;100891.34;;;18.02;100.00
60373;BME280;46216;52.220;5.134;2022-09-30T15:21:43;100885.66;;;18.05;100.00
60373;BME280;46216;52.220;5.134;2022-09-30T15:24:09;100879.09;;;18.07;100.00
60373;BME280;46216;52.220;5.134;2022-09-30T15:26:36;100883.63;;;18.07;100.00
60373;BME280;46216;52.220;5.134;2022-09-30T15:29:03;100884.94;;;18.03;100.00
60373;BME280;46216;52.220;5.134;2022-09-30T15:31:30;100883.41;;;18.00;100.00
60373;BME280;46216;52.220;5.134;2022-09-30T15:34:34;100883.53;;;17.90;100.00
60373;BME280;46216;52.220;5.134;2022-09-30T15:37:01;100881.69;;;17.91;100.00
60373;BME280;46216;52.220;5.134;2022-09-30T15:39:36;100890.72;;;17.82;100.00
60373;BME280;46216;52.220;5.134;2022-09-30T15:42:35;100887.78;;;17.75;100.00
60373;BME280;46216;52.220;5.134;2022-09-30T15:45:35;100894.03;;;17.58;100.00
60373;BME280;46216;52.220;5.134;2022-09-30T15:50:52;100893.75;;;17.43;100.00
60373;BME280;46216;52.220;5.134;2022-09-30T15:53:28;100894.50;;;17.35;100.00